createdAt,value
2019-02-22T00:00:20.209Z,912.83
2019-02-22T00:01:20.196Z,912.89
2019-02-22T00:02:20.150Z,912.95
2019-02-22T00:03:20.127Z,912.99
2019-02-22T00:04:20.247Z,912.99
2019-02-22T00:05:20.064Z,912.96
2019-02-22T00:06:20.081Z,913.01
2019-02-22T00:07:20.004Z,912.93
2019-02-22T00:08:20.045Z,912.98
2019-02-22T00:09:19.935Z,912.99
2019-02-22T00:10:20.199Z,912.95
2019-02-22T00:11:19.847Z,912.96
2019-02-22T00:12:19.839Z,912.96
2019-02-22T00:13:19.782Z,912.93
2019-02-22T00:14:19.831Z,912.92
2019-02-22T00:15:20.286Z,912.96
2019-02-22T00:16:19.845Z,912.97
2019-02-22T00:17:19.694Z,912.99
2019-02-22T00:18:19.649Z,913.03
2019-02-22T00:19:19.596Z,913.00
2019-02-22T00:20:19.577Z,913.01
2019-02-22T00:21:19.542Z,913.02
2019-02-22T00:22:19.488Z,913.07
2019-02-22T00:23:19.478Z,913.07
2019-02-22T00:24:19.632Z,913.13
2019-02-22T00:25:19.386Z,913.20
2019-02-22T00:26:19.368Z,913.22
2019-02-22T00:27:19.493Z,913.21
2019-02-22T00:28:19.308Z,913.24
2019-02-22T00:29:19.289Z,913.26
2019-02-22T00:30:21.508Z,913.35
2019-02-22T00:31:19.204Z,913.39
2019-02-22T00:32:19.179Z,913.38
2019-02-22T00:34:19.118Z,913.44
2019-02-22T00:35:19.123Z,913.49
2019-02-22T00:36:19.101Z,913.50
2019-02-22T00:37:19.012Z,913.52
2019-02-22T00:38:18.983Z,913.55
2019-02-22T00:39:18.949Z,913.56
2019-02-22T00:40:19.055Z,913.58
2019-02-22T00:41:18.889Z,913.62
2019-02-22T00:42:18.853Z,913.61
2019-02-22T00:43:18.820Z,913.65
2019-02-22T00:44:18.781Z,913.65
2019-02-22T00:45:18.752Z,913.67
2019-02-22T00:46:18.714Z,913.65
2019-02-22T00:47:18.682Z,913.65
2019-02-22T00:48:18.707Z,913.65
2019-02-22T00:49:18.595Z,913.64
2019-02-22T00:50:18.588Z,913.61
2019-02-22T00:51:18.547Z,913.64
2019-02-22T00:52:18.526Z,913.67
2019-02-22T00:53:18.478Z,913.71
2019-02-22T00:54:18.589Z,913.75
2019-02-22T00:55:18.433Z,913.79
2019-02-22T00:56:18.384Z,913.83
2019-02-22T00:57:18.361Z,913.85
2019-02-22T00:58:18.319Z,913.85
2019-02-22T00:59:18.268Z,913.86
2019-02-22T01:00:18.267Z,913.87
2019-02-22T01:01:18.247Z,913.84
2019-02-22T01:02:18.203Z,913.84
2019-02-22T01:03:18.159Z,913.84
2019-02-22T01:04:18.114Z,913.78
2019-02-22T01:05:18.376Z,913.79
2019-02-22T01:06:18.085Z,913.82
2019-02-22T01:07:18.048Z,913.82
2019-02-22T01:08:18.007Z,913.83
2019-02-22T01:09:17.964Z,913.87
2019-02-22T01:10:17.975Z,913.83
2019-02-22T01:11:18.062Z,913.86
2019-02-22T01:12:17.912Z,913.79
2019-02-22T01:13:17.830Z,913.78
2019-02-22T01:14:17.795Z,913.82
2019-02-22T01:15:17.743Z,913.86
2019-02-22T01:16:17.740Z,913.88
2019-02-22T01:17:17.693Z,913.90
2019-02-22T01:18:17.703Z,913.95
2019-02-22T01:19:17.625Z,913.95
2019-02-22T01:20:17.594Z,914.01
2019-02-22T01:21:17.571Z,914.04
2019-02-22T01:22:17.742Z,914.03
2019-02-22T01:23:17.526Z,914.01
2019-02-22T01:24:17.468Z,914.02
2019-02-22T01:25:17.430Z,914.03
2019-02-22T01:26:17.427Z,914.08
2019-02-22T01:27:17.374Z,914.08
2019-02-22T01:28:17.335Z,914.08
2019-02-22T01:29:17.326Z,914.11
2019-02-22T01:30:17.276Z,914.17
2019-02-22T01:31:17.223Z,914.18
2019-02-22T01:32:17.215Z,914.18
2019-02-22T01:33:17.329Z,914.18
2019-02-22T01:34:17.144Z,914.20
2019-02-22T01:35:17.098Z,914.20
2019-02-22T01:36:17.066Z,914.18
2019-02-22T01:37:17.057Z,914.17
2019-02-22T01:38:17.010Z,914.17
2019-02-22T01:39:17.323Z,914.18
2019-02-22T01:40:16.952Z,914.17
2019-02-22T01:41:16.969Z,914.19
2019-02-22T01:42:16.877Z,914.19
2019-02-22T01:43:16.851Z,914.18
2019-02-22T01:44:16.836Z,914.18
2019-02-22T01:45:16.962Z,914.22
2019-02-22T01:46:16.744Z,914.19
2019-02-22T01:47:16.708Z,914.17
2019-02-22T01:48:16.689Z,914.23
2019-02-22T01:49:16.641Z,914.23
2019-02-22T01:50:16.613Z,914.23
2019-02-22T01:51:16.586Z,914.19
2019-02-22T01:52:16.542Z,914.22
2019-02-22T01:53:16.499Z,914.21
2019-02-22T01:54:16.489Z,914.21
2019-02-22T01:55:16.451Z,914.16
2019-02-22T01:56:16.411Z,914.14
2019-02-22T01:57:16.363Z,914.19
2019-02-22T01:58:16.362Z,914.19
2019-02-22T01:59:16.317Z,914.18
2019-02-22T02:00:16.287Z,914.13
2019-02-22T02:01:16.383Z,914.10
2019-02-22T02:02:16.215Z,914.15
2019-02-22T02:03:16.189Z,914.12
2019-02-22T02:04:16.143Z,914.15
2019-02-22T02:05:16.123Z,914.19
2019-02-22T02:06:16.075Z,914.26
2019-02-22T02:07:16.065Z,914.25
2019-02-22T02:08:16.021Z,914.28
2019-02-22T02:09:16.013Z,914.24
2019-02-22T02:10:15.952Z,914.26
2019-02-22T02:11:15.931Z,914.21
2019-02-22T02:12:15.910Z,914.20
2019-02-22T02:14:15.809Z,914.14
2019-02-22T02:15:15.795Z,914.22
2019-02-22T02:16:15.740Z,914.28
2019-02-22T02:17:17.734Z,914.37
2019-02-22T02:18:15.779Z,914.43
2019-02-22T02:19:15.681Z,914.48
2019-02-22T02:20:15.745Z,914.45
2019-02-22T02:21:15.576Z,914.37
2019-02-22T02:22:15.571Z,914.31
2019-02-22T02:23:15.536Z,914.26
2019-02-22T02:24:15.493Z,914.14
2019-02-22T02:25:15.469Z,913.99
2019-02-22T02:26:15.443Z,913.88
2019-02-22T02:27:15.416Z,913.83
2019-02-22T02:28:15.355Z,913.78
2019-02-22T02:29:15.332Z,913.83
2019-02-22T02:30:15.343Z,913.87
2019-02-22T02:31:15.256Z,913.89
2019-02-22T02:32:15.253Z,913.90
2019-02-22T02:33:15.206Z,913.88
2019-02-22T02:34:15.333Z,913.84
2019-02-22T02:35:15.146Z,913.87
2019-02-22T02:36:15.101Z,913.85
2019-02-22T02:37:15.065Z,913.85
2019-02-22T02:38:15.027Z,913.88
2019-02-22T02:39:15.006Z,913.91
2019-02-22T02:40:14.974Z,913.89
2019-02-22T02:41:14.950Z,913.85
2019-02-22T02:42:15.023Z,913.84
2019-02-22T02:43:14.889Z,913.83
2019-02-22T02:44:14.837Z,913.82
2019-02-22T02:45:14.813Z,913.84
2019-02-22T02:46:14.860Z,913.84
2019-02-22T02:47:14.727Z,913.78
2019-02-22T02:48:14.758Z,913.78
2019-02-22T02:49:14.681Z,913.78
2019-02-22T02:50:14.638Z,913.79
2019-02-22T02:51:14.599Z,913.78
2019-02-22T02:52:14.577Z,913.76
2019-02-22T02:53:14.536Z,913.77
2019-02-22T02:54:14.515Z,913.76
2019-02-22T02:55:14.458Z,913.76
2019-02-22T02:56:14.662Z,913.75
2019-02-22T02:57:14.416Z,913.73
2019-02-22T02:58:14.404Z,913.75
2019-02-22T02:59:14.355Z,913.73
2019-02-22T03:00:14.317Z,913.71
2019-02-22T03:01:14.333Z,913.73
2019-02-22T03:02:14.375Z,913.71
2019-02-22T03:03:14.232Z,913.66
2019-02-22T03:04:14.196Z,913.69
2019-02-22T03:05:14.135Z,913.67
2019-02-22T03:06:14.132Z,913.71
2019-02-22T03:07:14.080Z,913.68
2019-02-22T03:08:14.264Z,913.76
2019-02-22T03:09:14.014Z,913.74
2019-02-22T03:10:13.972Z,913.80
2019-02-22T03:11:20.565Z,913.85
2019-02-22T03:12:13.918Z,913.86
2019-02-22T03:13:13.882Z,913.85
2019-02-22T03:14:13.860Z,913.83
2019-02-22T03:15:13.810Z,913.83
2019-02-22T03:16:13.777Z,913.81
2019-02-22T03:17:13.755Z,913.84
2019-02-22T03:18:13.728Z,913.84
2019-02-22T03:19:13.682Z,913.83
2019-02-22T03:20:13.651Z,913.84
2019-02-22T03:21:13.618Z,913.84
2019-02-22T03:22:13.585Z,913.83
2019-02-22T03:23:13.549Z,913.80
2019-02-22T03:24:13.701Z,913.77
2019-02-22T03:25:13.485Z,913.77
2019-02-22T03:26:13.445Z,913.77
2019-02-22T03:27:13.402Z,913.76
2019-02-22T03:28:13.392Z,913.71
2019-02-22T03:29:13.361Z,913.69
2019-02-22T03:30:13.329Z,913.72
2019-02-22T03:31:13.272Z,913.73
2019-02-22T03:32:13.265Z,913.72
2019-02-22T03:33:13.272Z,913.71
2019-02-22T03:34:13.185Z,913.72
2019-02-22T03:35:13.136Z,913.69
2019-02-22T03:36:13.114Z,913.68
2019-02-22T03:37:13.086Z,913.66
2019-02-22T03:38:13.060Z,913.68
2019-02-22T03:39:13.055Z,913.67
2019-02-22T03:40:13.153Z,913.67
2019-02-22T03:41:12.944Z,913.64
2019-02-22T03:42:12.923Z,913.65
2019-02-22T03:43:12.890Z,913.59
2019-02-22T03:44:12.840Z,913.59
2019-02-22T03:45:12.819Z,913.58
2019-02-22T03:46:12.796Z,913.59
2019-02-22T03:47:12.748Z,913.56
2019-02-22T03:48:12.734Z,913.56
2019-02-22T03:49:12.702Z,913.54
2019-02-22T03:51:12.838Z,913.48
2019-02-22T03:52:12.608Z,913.46
2019-02-22T03:53:12.565Z,913.49
2019-02-22T03:54:12.533Z,913.48
2019-02-22T03:55:12.501Z,913.46
2019-02-22T03:56:12.815Z,913.44
2019-02-22T03:57:12.426Z,913.46
2019-02-22T03:58:12.405Z,913.42
2019-02-22T03:59:12.369Z,913.47
2019-02-22T04:00:12.357Z,913.50
2019-02-22T04:01:12.296Z,913.47
2019-02-22T04:02:12.248Z,913.43
2019-02-22T04:03:12.236Z,913.42
2019-02-22T04:04:12.180Z,913.41
2019-02-22T04:05:12.193Z,913.39
2019-02-22T04:06:12.138Z,913.41
2019-02-22T04:07:12.102Z,913.37
2019-02-22T04:08:12.072Z,913.40
2019-02-22T04:09:12.040Z,913.37
2019-02-22T04:10:12.019Z,913.35
2019-02-22T04:11:11.973Z,913.37
2019-02-22T04:12:11.978Z,913.37
2019-02-22T04:13:11.884Z,913.34
2019-02-22T04:14:11.865Z,913.32
2019-02-22T04:15:11.842Z,913.33
2019-02-22T04:16:11.802Z,913.29
2019-02-22T04:17:11.811Z,913.30
2019-02-22T04:18:11.741Z,913.30
2019-02-22T04:19:11.718Z,913.28
2019-02-22T04:20:11.669Z,913.26
2019-02-22T04:21:11.663Z,913.27
2019-02-22T04:22:11.619Z,913.24
2019-02-22T04:23:11.765Z,913.28
2019-02-22T04:24:11.543Z,913.27
2019-02-22T04:25:11.492Z,913.27
2019-02-22T04:26:11.470Z,913.25
2019-02-22T04:27:11.434Z,913.24
2019-02-22T04:28:11.398Z,913.19
2019-02-22T04:29:11.515Z,913.18
2019-02-22T04:30:11.350Z,913.18
2019-02-22T04:31:11.342Z,913.17
2019-02-22T04:32:11.269Z,913.15
2019-02-22T04:33:11.257Z,913.13
2019-02-22T04:34:11.213Z,913.15
2019-02-22T04:35:11.382Z,913.09
2019-02-22T04:36:11.129Z,913.10
2019-02-22T04:37:11.124Z,913.10
2019-02-22T04:38:11.080Z,913.11
2019-02-22T04:39:11.041Z,913.12
2019-02-22T04:40:11.014Z,913.10
2019-02-22T04:41:11.232Z,913.10
2019-02-22T04:42:10.951Z,913.09
2019-02-22T04:43:10.928Z,913.07
2019-02-22T04:44:10.885Z,913.10
2019-02-22T04:45:10.851Z,913.08
2019-02-22T04:46:10.813Z,913.06
2019-02-22T04:47:10.797Z,913.05
2019-02-22T04:48:10.753Z,913.01
2019-02-22T04:49:10.711Z,913.02
2019-02-22T04:50:10.687Z,913.02
2019-02-22T04:51:10.645Z,913.04
2019-02-22T04:52:10.622Z,912.99
2019-02-22T04:53:10.574Z,913.03
2019-02-22T04:54:10.546Z,913.02
2019-02-22T04:55:10.512Z,913.03
2019-02-22T04:56:10.487Z,913.04
2019-02-22T04:57:10.652Z,913.00
2019-02-22T04:58:10.440Z,913.01
2019-02-22T04:59:10.392Z,912.95
2019-02-22T05:00:10.347Z,912.94
2019-02-22T05:01:10.321Z,912.92
2019-02-22T05:02:10.293Z,912.93
2019-02-22T05:03:10.259Z,912.89
2019-02-22T05:04:10.212Z,912.91
2019-02-22T05:05:10.211Z,912.90
2019-02-22T05:06:10.164Z,912.92
2019-02-22T05:07:10.128Z,912.91
2019-02-22T05:08:10.087Z,912.89
2019-02-22T05:09:10.060Z,912.89
2019-02-22T05:10:10.015Z,912.89
2019-02-22T05:11:10.002Z,912.91
2019-02-22T05:12:11.103Z,912.91
2019-02-22T05:13:09.907Z,912.91
2019-02-22T05:14:09.892Z,912.90
2019-02-22T05:15:12.961Z,912.93
2019-02-22T05:16:09.822Z,912.92
2019-02-22T05:17:09.795Z,912.91
2019-02-22T05:18:09.742Z,912.95
2019-02-22T05:19:09.739Z,912.95
2019-02-22T05:20:09.706Z,912.95
2019-02-22T05:21:09.660Z,912.93
2019-02-22T05:22:09.614Z,912.95
2019-02-22T05:23:09.617Z,912.95
2019-02-22T05:24:09.718Z,912.92
2019-02-22T05:25:09.515Z,912.92
2019-02-22T05:26:09.477Z,912.93
2019-02-22T05:27:09.467Z,912.89
2019-02-22T05:28:09.440Z,912.89
2019-02-22T05:29:09.397Z,912.93
2019-02-22T05:30:09.567Z,912.87
2019-02-22T05:31:09.330Z,912.90
2019-02-22T05:32:09.306Z,912.89
2019-02-22T05:33:09.265Z,912.88
2019-02-22T05:34:09.234Z,912.90
2019-02-22T05:35:09.194Z,912.88
2019-02-22T05:36:09.170Z,912.89
2019-02-22T05:37:09.133Z,912.89
2019-02-22T05:38:09.081Z,912.82
2019-02-22T05:39:18.659Z,912.81
2019-02-22T05:40:09.080Z,912.77
2019-02-22T05:41:09.002Z,912.81
2019-02-22T05:42:09.036Z,912.77
2019-02-22T05:43:08.946Z,912.75
2019-02-22T05:44:08.901Z,912.75
2019-02-22T05:45:08.868Z,912.74
2019-02-22T05:46:08.827Z,912.75
2019-02-22T05:47:08.786Z,912.71
2019-02-22T05:48:08.783Z,912.74
2019-02-22T05:49:08.736Z,912.72
2019-02-22T05:50:08.713Z,912.74
2019-02-22T05:51:08.679Z,912.75
2019-02-22T05:52:08.641Z,912.75
2019-02-22T05:53:08.609Z,912.75
2019-02-22T05:54:08.566Z,912.73
2019-02-22T05:55:08.517Z,912.72
2019-02-22T05:56:08.503Z,912.71
2019-02-22T05:57:08.618Z,912.66
2019-02-22T05:58:08.438Z,912.69
2019-02-22T05:59:08.405Z,912.67
2019-02-22T06:00:08.376Z,912.71
2019-02-22T06:01:08.408Z,912.68
2019-02-22T06:02:08.290Z,912.65
2019-02-22T06:03:08.272Z,912.61
2019-02-22T06:04:08.218Z,912.64
2019-02-22T06:05:08.198Z,912.60
2019-02-22T06:06:08.172Z,912.60
2019-02-22T06:07:08.192Z,912.62
2019-02-22T06:08:08.926Z,912.58
2019-02-22T06:09:08.117Z,912.61
2019-02-22T06:10:08.040Z,912.59
2019-02-22T06:11:08.008Z,912.60
2019-02-22T06:12:07.966Z,912.59
2019-02-22T06:13:07.921Z,912.55
2019-02-22T06:14:07.888Z,912.54
2019-02-22T06:15:07.852Z,912.55
2019-02-22T06:16:07.846Z,912.55
2019-02-22T06:17:14.486Z,912.52
2019-02-22T06:18:07.766Z,912.52
2019-02-22T06:19:07.720Z,912.53
2019-02-22T06:20:07.710Z,912.52
2019-02-22T06:21:07.674Z,912.49
2019-02-22T06:22:07.633Z,912.49
2019-02-22T06:23:07.620Z,912.47
2019-02-22T06:25:07.545Z,912.43
2019-02-22T06:26:07.507Z,912.45
2019-02-22T06:27:07.453Z,912.47
2019-02-22T06:28:07.442Z,912.46
2019-02-22T06:29:07.387Z,912.48
2019-02-22T06:30:07.367Z,912.43
2019-02-22T06:31:07.357Z,912.47
2019-02-22T06:32:07.302Z,912.44
2019-02-22T06:33:07.269Z,912.46
2019-02-22T06:34:07.232Z,912.47
2019-02-22T06:35:08.979Z,912.49
2019-02-22T06:36:07.178Z,912.51
2019-02-22T06:37:07.142Z,912.49
2019-02-22T06:38:07.090Z,912.47
2019-02-22T06:39:07.074Z,912.45
2019-02-22T06:40:07.056Z,912.43
2019-02-22T06:41:07.012Z,912.45
2019-02-22T06:42:06.975Z,912.44
2019-02-22T06:43:06.932Z,912.45
2019-02-22T06:44:06.909Z,912.48
2019-02-22T06:45:06.861Z,912.49
2019-02-22T06:46:06.844Z,912.53
2019-02-22T06:47:06.799Z,912.53
2019-02-22T06:48:06.774Z,912.51
2019-02-22T06:49:06.734Z,912.55
2019-02-22T06:50:06.781Z,912.57
2019-02-22T06:51:06.667Z,912.60
2019-02-22T06:52:06.651Z,912.59
2019-02-22T06:53:06.621Z,912.60
2019-02-22T06:54:06.569Z,912.61
2019-02-22T06:55:06.552Z,912.69
2019-02-22T06:56:06.500Z,912.65
2019-02-22T06:57:06.484Z,912.67
2019-02-22T06:58:06.423Z,912.68
2019-02-22T06:59:06.400Z,912.63
2019-02-22T07:00:06.382Z,912.59
2019-02-22T07:01:06.525Z,912.67
2019-02-22T07:02:06.304Z,912.66
2019-02-22T07:03:06.278Z,912.63
2019-02-22T07:04:06.257Z,912.65
2019-02-22T07:05:06.209Z,912.66
2019-02-22T07:06:06.156Z,912.65
2019-02-22T07:07:06.143Z,912.62
2019-02-22T07:08:06.098Z,912.62
2019-02-22T07:09:06.057Z,912.63
2019-02-22T07:10:06.063Z,912.63
2019-02-22T07:11:06.012Z,912.63
2019-02-22T07:12:06.157Z,912.67
2019-02-22T07:13:05.931Z,912.66
2019-02-22T07:14:05.965Z,912.60
2019-02-22T07:15:05.874Z,912.61
2019-02-22T07:16:05.947Z,912.64
2019-02-22T07:17:05.820Z,912.60
2019-02-22T07:18:05.775Z,912.64
2019-02-22T07:19:05.747Z,912.61
2019-02-22T07:20:05.688Z,912.65
2019-02-22T07:21:05.678Z,912.66
2019-02-22T07:22:05.625Z,912.68
2019-02-22T07:23:05.851Z,912.65
2019-02-22T07:24:05.572Z,912.70
2019-02-22T07:25:05.544Z,912.70
2019-02-22T07:26:05.513Z,912.71
2019-02-22T07:27:05.480Z,912.72
2019-02-22T07:28:05.494Z,912.69
2019-02-22T07:29:05.461Z,912.71
2019-02-22T07:30:05.367Z,912.69
2019-02-22T07:31:05.349Z,912.70
2019-02-22T07:32:06.366Z,912.73
2019-02-22T07:33:05.284Z,912.75
2019-02-22T07:34:05.253Z,912.74
2019-02-22T07:35:05.262Z,912.78
2019-02-22T07:36:05.173Z,912.80
2019-02-22T07:37:05.135Z,912.78
2019-02-22T07:38:05.110Z,912.79
2019-02-22T07:39:05.080Z,912.82
2019-02-22T07:40:05.384Z,912.78
2019-02-22T07:41:04.995Z,912.82
2019-02-22T07:42:04.973Z,912.82
2019-02-22T07:43:07.974Z,912.82
2019-02-22T07:44:04.888Z,912.81
2019-02-22T07:45:04.878Z,912.83
2019-02-22T07:46:04.880Z,912.80
2019-02-22T07:47:04.787Z,912.85
2019-02-22T07:48:04.755Z,912.84
2019-02-22T07:49:04.746Z,912.85
2019-02-22T07:50:04.708Z,912.87
2019-02-22T07:51:04.669Z,912.84
2019-02-22T07:52:04.641Z,912.84
2019-02-22T07:53:04.610Z,912.82
2019-02-22T07:54:04.573Z,912.84
2019-02-22T07:55:04.542Z,912.84
2019-02-22T07:56:04.544Z,912.85
2019-02-22T07:57:04.475Z,912.89
2019-02-22T07:58:04.446Z,912.92
2019-02-22T07:59:04.388Z,912.87
2019-02-22T08:00:04.390Z,912.88
2019-02-22T08:01:04.514Z,912.92
2019-02-22T08:02:04.310Z,912.95
2019-02-22T08:03:04.283Z,912.96
2019-02-22T08:04:04.239Z,912.92
2019-02-22T08:05:04.213Z,912.95
2019-02-22T08:06:04.161Z,912.97
2019-02-22T08:07:04.121Z,912.99
2019-02-22T08:08:04.104Z,913.01
2019-02-22T08:09:04.063Z,913.03
2019-02-22T08:10:04.047Z,913.04
2019-02-22T08:11:03.996Z,913.05
2019-02-22T08:12:04.187Z,913.06
2019-02-22T08:13:03.922Z,913.08
2019-02-22T08:14:03.898Z,913.04
2019-02-22T08:15:03.852Z,913.06
2019-02-22T08:16:03.833Z,913.08
2019-02-22T08:17:03.964Z,913.10
2019-02-22T08:18:03.749Z,913.09
2019-02-22T08:19:03.739Z,913.09
2019-02-22T08:20:03.702Z,913.11
2019-02-22T08:21:03.659Z,913.12
2019-02-22T08:22:03.719Z,913.13
2019-02-22T08:23:03.606Z,913.15
2019-02-22T08:24:03.573Z,913.16
2019-02-22T08:25:03.541Z,913.14
2019-02-22T08:26:03.514Z,913.13
2019-02-22T08:27:03.444Z,913.14
2019-02-22T08:28:03.441Z,913.12
2019-02-22T08:29:03.378Z,913.13
2019-02-22T08:30:03.369Z,913.17
2019-02-22T08:31:03.323Z,913.13
2019-02-22T08:32:03.304Z,913.10
2019-02-22T08:33:03.258Z,913.13
2019-02-22T08:34:03.224Z,913.15
2019-02-22T08:35:03.185Z,913.16
2019-02-22T08:36:03.157Z,913.17
2019-02-22T08:37:03.111Z,913.19
2019-02-22T08:38:03.104Z,913.20
2019-02-22T08:39:03.065Z,913.17
2019-02-22T08:40:03.031Z,913.21
2019-02-22T08:41:02.987Z,913.23
2019-02-22T08:42:02.964Z,913.22
2019-02-22T08:43:02.943Z,913.21
2019-02-22T08:44:02.895Z,913.24
2019-02-22T08:45:02.845Z,913.23
2019-02-22T08:46:02.828Z,913.25
2019-02-22T08:47:02.808Z,913.25
2019-02-22T08:48:02.760Z,913.24
2019-02-22T08:49:02.727Z,913.25
2019-02-22T08:50:02.675Z,913.23
2019-02-22T08:51:02.668Z,913.22
2019-02-22T08:52:02.636Z,913.19
2019-02-22T08:53:02.625Z,913.22
2019-02-22T08:54:02.723Z,913.29
2019-02-22T08:55:02.552Z,913.26
2019-02-22T08:56:02.492Z,913.27
2019-02-22T08:57:02.446Z,913.23
2019-02-22T08:58:02.475Z,913.25
2019-02-22T08:59:02.385Z,913.27
2019-02-22T09:00:02.511Z,913.29
2019-02-22T09:01:02.323Z,913.32
2019-02-22T09:02:02.299Z,913.29
2019-02-22T09:03:02.253Z,913.36
2019-02-22T09:04:02.231Z,913.35
2019-02-22T09:05:02.190Z,913.35
2019-02-22T09:06:02.160Z,913.38
2019-02-22T09:07:02.134Z,913.37
2019-02-22T09:08:02.136Z,913.40
2019-02-22T09:09:02.071Z,913.37
2019-02-22T09:10:02.035Z,913.40
2019-02-22T09:11:02.004Z,913.43
2019-02-22T09:12:01.971Z,913.42
2019-02-22T09:13:01.935Z,913.43
2019-02-22T09:14:01.877Z,913.44
2019-02-22T09:15:01.882Z,913.42
2019-02-22T09:16:02.221Z,913.44
2019-02-22T09:17:01.782Z,913.42
2019-02-22T09:18:01.736Z,913.45
2019-02-22T09:19:01.705Z,913.49
2019-02-22T09:20:01.682Z,913.44
2019-02-22T09:21:01.642Z,913.44
2019-02-22T09:22:01.609Z,913.48
2019-02-22T09:23:01.580Z,913.50
2019-02-22T09:24:01.556Z,913.48
2019-02-22T09:25:01.512Z,913.48
2019-02-22T09:26:01.473Z,913.51
2019-02-22T09:27:01.506Z,913.50
2019-02-22T09:28:01.420Z,913.53
2019-02-22T09:29:01.377Z,913.50
2019-02-22T09:30:01.350Z,913.52
2019-02-22T09:31:01.323Z,913.50
2019-02-22T09:32:01.282Z,913.52
2019-02-22T09:33:01.229Z,913.53
2019-02-22T09:34:01.212Z,913.51
2019-02-22T09:35:01.222Z,913.52
2019-02-22T09:36:01.135Z,913.53
2019-02-22T09:37:01.112Z,913.55
2019-02-22T09:38:01.079Z,913.54
2019-02-22T09:39:01.054Z,913.60
2019-02-22T09:40:01.012Z,913.59
2019-02-22T09:41:00.988Z,913.58
2019-02-22T09:42:00.926Z,913.60
2019-02-22T09:43:00.917Z,913.64
2019-02-22T09:44:00.882Z,913.64
2019-02-22T09:45:00.853Z,913.67
2019-02-22T09:46:00.831Z,913.69
2019-02-22T09:47:00.795Z,913.70
2019-02-22T09:48:00.801Z,913.73
2019-02-22T09:49:00.709Z,913.75
2019-02-22T09:50:00.666Z,913.79
2019-02-22T09:51:00.655Z,913.79
2019-02-22T09:52:00.587Z,913.79
2019-02-22T09:53:00.566Z,913.84
2019-02-22T09:54:00.531Z,913.87
2019-02-22T09:55:00.510Z,913.86
2019-02-22T09:56:00.462Z,913.85
2019-02-22T09:57:02.020Z,913.83
2019-02-22T09:58:00.415Z,913.84
2019-02-22T09:59:00.418Z,913.83
2019-02-22T10:00:00.337Z,913.88
2019-02-22T10:01:00.300Z,913.86
2019-02-22T10:02:00.282Z,913.87
2019-02-22T10:03:00.244Z,913.83
2019-02-22T10:04:00.202Z,913.84
2019-02-22T10:05:00.397Z,913.85
2019-02-22T10:06:00.135Z,913.85
2019-02-22T10:07:00.099Z,913.87
2019-02-22T10:08:00.085Z,913.83
2019-02-22T10:09:00.065Z,913.85
2019-02-22T10:09:59.994Z,913.85
2019-02-22T10:10:59.965Z,913.85
2019-02-22T10:11:59.938Z,913.87
2019-02-22T10:12:59.919Z,913.91
2019-02-22T10:14:06.692Z,913.89
2019-02-22T10:14:59.826Z,913.89
2019-02-22T10:15:59.811Z,913.90
2019-02-22T10:16:59.772Z,913.94
2019-02-22T10:17:59.751Z,913.96
2019-02-22T10:18:59.714Z,913.99
2019-02-22T10:20:01.536Z,913.97
2019-02-22T10:20:59.657Z,914.00
2019-02-22T10:21:59.621Z,914.03
2019-02-22T10:22:59.597Z,914.05
2019-02-22T10:23:59.541Z,914.06
2019-02-22T10:24:59.523Z,914.04
2019-02-22T10:25:59.786Z,914.12
2019-02-22T10:26:59.434Z,914.15
2019-02-22T10:27:59.432Z,914.17
2019-02-22T10:28:59.390Z,914.19
2019-02-22T10:29:59.350Z,914.23
2019-02-22T10:30:59.327Z,914.27
2019-02-22T10:31:59.471Z,914.27
2019-02-22T10:32:59.249Z,914.27
2019-02-22T10:33:59.239Z,914.32
2019-02-22T10:34:59.198Z,914.31
2019-02-22T10:35:59.152Z,914.31
2019-02-22T10:36:59.132Z,914.35
2019-02-22T10:37:59.080Z,914.37
2019-02-22T10:38:59.097Z,914.36
2019-02-22T10:39:59.045Z,914.37
2019-02-22T10:40:59.009Z,914.43
2019-02-22T10:42:58.932Z,914.40
2019-02-22T10:43:58.901Z,914.43
2019-02-22T10:44:58.884Z,914.46
2019-02-22T10:45:58.851Z,914.47
2019-02-22T10:46:58.791Z,914.48
2019-02-22T10:47:58.786Z,914.51
2019-02-22T10:48:58.737Z,914.56
2019-02-22T10:49:58.697Z,914.52
2019-02-22T10:50:59.532Z,914.54
2019-02-22T10:51:58.843Z,914.55
2019-02-22T10:53:02.193Z,914.57
2019-02-22T10:53:58.721Z,914.57
2019-02-22T10:54:58.618Z,914.61
2019-02-22T10:55:58.533Z,914.64
2019-02-22T10:56:58.496Z,914.67
2019-02-22T10:57:58.694Z,914.70
2019-02-22T10:58:58.430Z,914.71
2019-02-22T10:59:58.407Z,914.72
2019-02-22T11:00:58.350Z,914.75
2019-02-22T11:01:58.354Z,914.78
2019-02-22T11:02:58.297Z,914.80
2019-02-22T11:03:58.261Z,914.84
2019-02-22T11:04:58.237Z,914.81
2019-02-22T11:05:58.358Z,914.86
2019-02-22T11:06:58.173Z,914.91
2019-02-22T11:07:58.449Z,914.86
2019-02-22T11:08:58.113Z,914.83
2019-02-22T11:09:58.092Z,914.85
2019-02-22T11:10:58.325Z,914.84
2019-02-22T11:11:58.011Z,914.83
2019-02-22T11:12:58.003Z,914.83
2019-02-22T11:13:57.946Z,914.82
2019-02-22T11:14:57.921Z,914.82
2019-02-22T11:15:57.909Z,914.79
2019-02-22T11:16:57.869Z,914.83
2019-02-22T11:17:57.874Z,914.79
2019-02-22T11:18:58.156Z,914.84
2019-02-22T11:19:57.784Z,914.84
2019-02-22T11:20:57.759Z,914.84
2019-02-22T11:21:57.723Z,914.85
2019-02-22T11:22:57.685Z,914.85
2019-02-22T11:23:57.663Z,914.79
2019-02-22T11:24:57.784Z,914.81
2019-02-22T11:25:57.601Z,914.84
2019-02-22T11:26:57.809Z,914.83
2019-02-22T11:27:57.521Z,914.85
2019-02-22T11:28:57.516Z,914.87
2019-02-22T11:29:57.460Z,914.87
2019-02-22T11:30:57.683Z,914.87
2019-02-22T11:31:57.406Z,914.87
2019-02-22T11:32:57.382Z,914.93
2019-02-22T11:33:57.350Z,914.95
2019-02-22T11:34:57.314Z,914.97
2019-02-22T11:35:57.285Z,914.95
2019-02-22T11:36:57.249Z,914.94
2019-02-22T11:37:57.253Z,914.97
2019-02-22T11:38:57.214Z,914.96
2019-02-22T11:39:57.192Z,914.96
2019-02-22T11:40:57.160Z,914.98
2019-02-22T11:41:57.117Z,914.94
2019-02-22T11:42:57.100Z,915.00
2019-02-22T11:43:57.059Z,914.97
2019-02-22T11:44:57.027Z,914.99
2019-02-22T11:45:56.987Z,914.97
2019-02-22T11:46:56.953Z,914.99
2019-02-22T11:48:08.420Z,914.97
2019-02-22T11:48:56.892Z,915.00
2019-02-22T11:49:56.893Z,915.01
2019-02-22T11:50:56.859Z,915.02
2019-02-22T11:51:56.820Z,915.00
2019-02-22T11:52:56.805Z,914.98
2019-02-22T11:53:56.766Z,914.99
2019-02-22T11:54:56.738Z,915.02
2019-02-22T11:55:56.692Z,915.10
2019-02-22T11:56:56.692Z,915.06
2019-02-22T11:57:56.669Z,915.11
2019-02-22T11:58:56.629Z,915.12
2019-02-22T11:59:56.583Z,915.13
2019-02-22T12:00:56.567Z,915.12
2019-02-22T12:01:56.523Z,915.09
2019-02-22T12:02:56.711Z,915.07
2019-02-22T12:03:56.508Z,915.10
2019-02-22T12:04:56.459Z,915.08
2019-02-22T12:05:56.420Z,915.10
2019-02-22T12:06:56.372Z,915.11
2019-02-22T12:07:56.363Z,915.06
2019-02-22T12:08:56.345Z,915.09
2019-02-22T12:09:56.306Z,915.07
2019-02-22T12:10:56.268Z,915.08
2019-02-22T12:11:56.237Z,915.08
2019-02-22T12:12:56.207Z,915.11
2019-02-22T12:13:56.194Z,915.27
2019-02-22T12:14:56.153Z,915.22
2019-02-22T12:15:56.146Z,915.15
2019-02-22T12:16:56.109Z,915.09
2019-02-22T12:17:56.077Z,915.19
2019-02-22T12:18:56.047Z,915.31
2019-02-22T12:19:56.016Z,915.19
2019-02-22T12:20:55.987Z,915.25
2019-02-22T12:21:55.983Z,915.21
2019-02-22T12:22:55.935Z,915.24
2019-02-22T12:23:55.896Z,915.29
2019-02-22T12:24:55.884Z,915.34
2019-02-22T12:25:55.844Z,915.38
2019-02-22T12:26:55.829Z,915.25
2019-02-22T12:27:55.817Z,915.35
2019-02-22T12:28:55.764Z,915.35
2019-02-22T12:29:55.748Z,915.28
2019-02-22T12:30:55.711Z,915.23
2019-02-22T12:31:55.684Z,915.21
2019-02-22T12:32:55.654Z,915.29